createdAt,value
2022-12-11T00:00:29.041Z,47.57
2022-12-11T00:02:56.862Z,45.37
2022-12-11T00:05:24.275Z,45.07
2022-12-11T00:07:51.304Z,49.87
2022-12-11T00:10:18.466Z,45.40
2022-12-11T00:12:45.381Z,48.50
2022-12-11T00:15:12.957Z,51.87
2022-12-11T00:17:40.196Z,52.97
2022-12-11T00:20:08.900Z,41.77
2022-12-11T00:22:35.994Z,50.10
2022-12-11T00:25:03.206Z,53.97
2022-12-11T00:27:30.089Z,50.50
2022-12-11T00:29:57.132Z,52.43
2022-12-11T00:32:23.997Z,51.93
2022-12-11T00:34:51.142Z,59.27
2022-12-11T00:37:18.124Z,43.37
2022-12-11T00:39:45.717Z,58.13
2022-12-11T00:42:12.731Z,51.87
2022-12-11T00:44:39.642Z,55.00
2022-12-11T00:47:06.555Z,58.47
2022-12-11T00:49:33.594Z,55.27
2022-12-11T00:52:00.562Z,55.53
2022-12-11T00:54:27.403Z,42.93
2022-12-11T00:56:58.876Z,52.53
2022-12-11T00:59:25.780Z,52.97
2022-12-11T01:01:52.744Z,48.73
2022-12-11T01:04:19.722Z,58.10
2022-12-11T01:06:46.736Z,50.60
2022-12-11T01:09:32.114Z,54.33
2022-12-11T01:11:59.077Z,55.13
2022-12-11T01:14:27.050Z,52.60
2022-12-11T01:16:54.046Z,43.17
2022-12-11T01:19:21.036Z,52.87
2022-12-11T01:21:48.064Z,50.60
2022-12-11T01:24:14.978Z,47.53
2022-12-11T01:26:41.921Z,48.40
2022-12-11T01:29:08.821Z,37.63
2022-12-11T01:31:35.721Z,52.03
2022-12-11T01:34:02.690Z,43.03
2022-12-11T01:36:29.641Z,41.33
2022-12-11T01:38:56.802Z,45.80
2022-12-11T01:41:23.755Z,47.00
2022-12-11T01:44:29.236Z,40.73
2022-12-11T01:46:56.650Z,34.20
2022-12-11T01:49:28.197Z,42.60
2022-12-11T01:52:19.397Z,32.63
2022-12-11T01:54:48.336Z,47.80
2022-12-11T01:57:16.428Z,41.33
2022-12-11T01:59:46.966Z,37.27
2022-12-11T02:02:34.025Z,43.20
2022-12-11T02:05:04.346Z,37.10
2022-12-11T02:07:41.602Z,43.00
2022-12-11T02:10:10.226Z,37.90
2022-12-11T02:12:48.818Z,42.73
2022-12-11T02:15:38.515Z,41.60
2022-12-11T02:18:27.756Z,40.37
2022-12-11T02:21:11.356Z,43.07
2022-12-11T02:23:54.166Z,39.10
2022-12-11T02:26:47.696Z,40.23
2022-12-11T02:29:26.564Z,47.47
2022-12-11T02:32:05.541Z,38.40
2022-12-11T02:34:48.041Z,44.13
2022-12-11T02:37:24.032Z,50.00
2022-12-11T02:39:54.662Z,46.10
2022-12-11T02:42:25.242Z,40.90
2022-12-11T02:44:55.101Z,44.57
2022-12-11T02:47:23.855Z,47.07
2022-12-11T02:49:52.331Z,46.03
2022-12-11T02:52:24.176Z,51.77
2022-12-11T02:54:54.462Z,47.37
2022-12-11T02:57:45.138Z,49.80
2022-12-11T03:00:13.823Z,46.23
2022-12-11T03:02:41.889Z,44.27
2022-12-11T03:05:11.506Z,49.80
2022-12-11T03:07:43.021Z,42.27
2022-12-11T03:10:16.550Z,46.63
2022-12-11T03:12:51.793Z,48.43
2022-12-11T03:15:24.406Z,51.20
2022-12-11T03:18:11.357Z,38.90
2022-12-11T03:20:46.436Z,47.40
2022-12-11T03:23:51.423Z,42.20
2022-12-11T03:26:20.646Z,51.40
2022-12-11T03:29:16.721Z,49.87
2022-12-11T03:31:59.532Z,48.77
2022-12-11T03:35:06.410Z,44.93
2022-12-11T03:37:37.486Z,44.33
2022-12-11T03:40:11.216Z,45.63
2022-12-11T03:42:40.550Z,45.50
2022-12-11T03:45:10.173Z,34.60
2022-12-11T03:47:38.545Z,45.87
2022-12-11T03:50:09.783Z,44.13
2022-12-11T03:52:44.023Z,44.53
2022-12-11T03:55:16.757Z,44.93
2022-12-11T03:57:43.996Z,42.87
2022-12-11T04:00:16.923Z,39.60
2022-12-11T04:02:45.189Z,38.43
2022-12-11T04:05:12.710Z,38.83
2022-12-11T04:07:39.886Z,42.73
2022-12-11T04:10:07.290Z,40.53
2022-12-11T04:12:34.287Z,37.80
2022-12-11T04:15:04.228Z,33.47
2022-12-11T04:17:55.887Z,38.27
2022-12-11T04:20:41.368Z,35.60
2022-12-11T04:23:34.222Z,35.33
2022-12-11T04:26:11.931Z,37.97
2022-12-11T04:28:40.086Z,37.70
2022-12-11T04:31:14.796Z,29.17
2022-12-11T04:33:42.642Z,36.03
2022-12-11T04:36:11.440Z,33.80
2022-12-11T04:38:38.450Z,33.63
2022-12-11T04:41:13.126Z,26.50
2022-12-11T04:43:40.461Z,35.33
2022-12-11T04:46:17.847Z,33.50
2022-12-11T04:48:46.209Z,27.17
2022-12-11T04:51:14.626Z,36.57
2022-12-11T04:53:42.894Z,33.00
2022-12-11T04:56:13.359Z,23.57
2022-12-11T04:58:42.758Z,24.60
2022-12-11T05:01:14.580Z,32.27
2022-12-11T05:03:42.403Z,29.63
2022-12-11T05:06:11.387Z,31.37
2022-12-11T05:08:41.163Z,27.60
2022-12-11T05:11:12.070Z,27.47
2022-12-11T05:13:39.843Z,32.33
2022-12-11T05:16:12.661Z,28.63
2022-12-11T05:18:40.164Z,32.40
2022-12-11T05:21:11.986Z,26.97
2022-12-11T05:23:39.698Z,22.53
2022-12-11T05:26:12.731Z,25.57
2022-12-11T05:28:40.750Z,27.80
2022-12-11T05:31:20.018Z,29.83
2022-12-11T05:33:49.049Z,29.13
2022-12-11T05:36:22.724Z,30.37
2022-12-11T05:38:51.054Z,30.10
2022-12-11T05:41:21.457Z,35.97
2022-12-11T05:43:48.910Z,27.07
2022-12-11T05:46:21.030Z,31.77
2022-12-11T05:48:52.003Z,28.00
2022-12-11T05:51:19.754Z,32.83
2022-12-11T05:53:49.613Z,25.40
2022-12-11T05:56:27.022Z,31.20
2022-12-11T05:58:55.909Z,30.83
2022-12-11T06:01:26.327Z,29.37
2022-12-11T06:03:55.684Z,31.07
2022-12-11T06:06:24.247Z,32.43
2022-12-11T06:08:53.673Z,30.83
2022-12-11T06:11:24.185Z,29.13
2022-12-11T06:13:52.491Z,31.17
2022-12-11T06:16:21.036Z,23.50
2022-12-11T06:18:48.643Z,31.20
2022-12-11T06:21:25.035Z,26.73
2022-12-11T06:23:56.780Z,29.60
2022-12-11T06:26:25.398Z,26.80
2022-12-11T06:28:52.434Z,31.13
2022-12-11T06:31:20.737Z,27.40
2022-12-11T06:33:48.463Z,32.77
2022-12-11T06:36:19.495Z,27.83
2022-12-11T06:38:46.484Z,30.63
2022-12-11T06:41:14.846Z,29.90
2022-12-11T06:43:43.438Z,24.73
2022-12-11T06:46:14.680Z,28.60
2022-12-11T06:48:42.432Z,24.37
2022-12-11T06:51:16.822Z,26.93
2022-12-11T06:53:44.429Z,28.27
2022-12-11T06:56:15.679Z,25.27
2022-12-11T06:58:44.224Z,23.27
2022-12-11T07:01:24.310Z,26.40
2022-12-11T07:03:54.812Z,22.30
2022-12-11T07:06:22.903Z,22.30
2022-12-11T07:08:49.866Z,24.10
2022-12-11T07:11:19.639Z,27.90
2022-12-11T07:13:47.303Z,19.87
2022-12-11T07:16:17.199Z,24.90
2022-12-11T07:18:49.774Z,26.00
2022-12-11T07:21:18.600Z,27.77
2022-12-11T07:23:45.941Z,23.97
2022-12-11T07:26:16.742Z,24.20
2022-12-11T07:28:44.522Z,27.07
2022-12-11T07:31:16.531Z,22.57
2022-12-11T07:33:43.840Z,23.63
2022-12-11T07:36:14.307Z,24.67
2022-12-11T07:38:41.943Z,23.37
2022-12-11T07:41:14.087Z,27.97
2022-12-11T07:43:42.901Z,24.67
2022-12-11T07:46:23.794Z,23.17
2022-12-11T07:48:50.932Z,24.90
2022-12-11T07:51:21.113Z,23.63
2022-12-11T07:53:50.621Z,26.47
2022-12-11T07:56:19.067Z,23.60
2022-12-11T07:58:47.236Z,24.77
2022-12-11T08:01:21.758Z,29.00
2022-12-11T08:03:51.109Z,29.17
2022-12-11T08:06:21.497Z,23.97
2022-12-11T08:08:48.407Z,26.70
2022-12-11T08:11:15.736Z,19.77
2022-12-11T08:13:44.611Z,24.70
2022-12-11T08:16:15.728Z,26.53
2022-12-11T08:18:45.102Z,33.63
2022-12-11T08:21:25.051Z,27.33
2022-12-11T08:23:53.856Z,21.77
2022-12-11T08:26:29.221Z,23.47
2022-12-11T08:28:56.653Z,22.60
2022-12-11T08:31:25.125Z,27.00
2022-12-11T08:33:53.484Z,26.97
2022-12-11T08:38:26.872Z,25.73
2022-12-11T08:40:53.779Z,26.10
2022-12-11T08:43:20.692Z,23.47
2022-12-11T08:45:47.708Z,27.50
2022-12-11T08:48:14.802Z,26.37
2022-12-11T08:50:42.109Z,25.00
2022-12-11T08:53:09.142Z,28.07
2022-12-11T08:55:36.125Z,29.43
2022-12-11T08:58:03.447Z,23.07
2022-12-11T09:00:30.420Z,25.63
2022-12-11T09:02:57.360Z,32.17
2022-12-11T09:05:24.404Z,27.50
2022-12-11T09:07:51.524Z,25.17
2022-12-11T09:10:18.900Z,21.53
2022-12-11T09:12:45.788Z,29.47
2022-12-11T09:15:13.235Z,20.17
2022-12-11T09:17:40.727Z,24.03
2022-12-11T09:20:08.555Z,27.30
2022-12-11T09:22:35.472Z,24.50
2022-12-11T09:25:02.479Z,32.43
2022-12-11T09:27:29.419Z,20.57
2022-12-11T09:29:56.423Z,28.37
2022-12-11T09:32:23.380Z,29.47
2022-12-11T09:34:51.946Z,25.80
2022-12-11T09:37:18.957Z,26.43
2022-12-11T09:39:45.956Z,26.27
2022-12-11T09:42:28.369Z,23.57
2022-12-11T09:44:58.692Z,24.23
2022-12-11T09:47:36.597Z,23.13
2022-12-11T09:50:21.542Z,25.90
2022-12-11T09:52:57.819Z,25.43
2022-12-11T09:55:31.484Z,25.40
2022-12-11T09:58:17.661Z,24.97
2022-12-11T10:00:53.542Z,21.73
2022-12-11T10:03:29.869Z,23.53
2022-12-11T10:06:22.652Z,24.23
2022-12-11T10:09:35.430Z,20.40
2022-12-11T10:12:23.845Z,25.37
2022-12-11T10:15:15.910Z,25.47
2022-12-11T10:17:47.203Z,19.87
2022-12-11T10:20:39.540Z,19.60
2022-12-11T10:23:10.735Z,24.07
2022-12-11T10:25:46.439Z,26.23
2022-12-11T10:28:16.459Z,24.67
2022-12-11T10:31:20.278Z,18.50
2022-12-11T10:33:50.295Z,24.10
2022-12-11T10:36:34.935Z,27.87
2022-12-11T10:39:02.411Z,27.47
2022-12-11T10:41:42.912Z,24.17
2022-12-11T10:44:23.236Z,23.83
2022-12-11T10:47:11.967Z,25.30
2022-12-11T10:49:52.540Z,19.93
2022-12-11T10:52:24.624Z,24.43
2022-12-11T10:55:23.249Z,16.20
2022-12-11T10:58:04.794Z,23.70
2022-12-11T11:00:39.202Z,18.30
2022-12-11T11:03:21.852Z,20.63
2022-12-11T11:05:50.773Z,20.50
2022-12-11T11:08:22.816Z,70.17
2022-12-11T11:11:01.867Z,20.43
2022-12-11T11:13:31.697Z,22.80
2022-12-11T11:16:13.292Z,22.97
2022-12-11T11:18:43.587Z,20.33
2022-12-11T11:21:20.863Z,26.93
2022-12-11T11:23:53.237Z,21.37
2022-12-11T11:26:23.124Z,17.80
2022-12-11T11:28:55.275Z,21.30
2022-12-11T11:31:33.084Z,23.17
2022-12-11T11:34:08.302Z,22.47
2022-12-11T11:36:37.629Z,20.80
2022-12-11T11:39:25.945Z,21.07
2022-12-11T11:42:14.020Z,16.13
2022-12-11T11:45:07.390Z,17.73
2022-12-11T11:47:46.175Z,18.40
2022-12-11T11:50:25.980Z,21.00
2022-12-11T11:53:25.031Z,16.33
2022-12-11T11:56:15.702Z,16.60
2022-12-11T11:58:50.194Z,15.60
2022-12-11T12:01:20.256Z,21.13
2022-12-11T12:03:49.783Z,17.00
2022-12-11T12:06:25.782Z,16.53
2022-12-11T12:09:15.384Z,26.23
2022-12-11T12:12:26.597Z,17.87
2022-12-11T12:15:18.529Z,17.30
2022-12-11T12:17:56.043Z,17.57
2022-12-11T12:20:54.418Z,17.37
2022-12-11T12:23:56.205Z,20.00
2022-12-11T12:26:54.277Z,15.57
2022-12-11T12:29:53.631Z,18.87
2022-12-11T12:32:44.509Z,14.83
2022-12-11T12:35:37.845Z,15.50
2022-12-11T12:38:55.070Z,16.53
2022-12-11T12:41:30.875Z,14.97
2022-12-11T12:44:14.509Z,15.93
2022-12-11T12:47:09.995Z,18.40
2022-12-11T12:49:47.467Z,16.30
2022-12-11T12:52:21.476Z,17.23
2022-12-11T12:55:16.251Z,14.60
2022-12-11T12:57:57.999Z,18.90
2022-12-11T13:00:42.382Z,21.40
2022-12-11T13:03:21.621Z,17.20
2022-12-11T13:06:02.449Z,18.90
2022-12-11T13:08:50.934Z,17.43
2022-12-11T13:11:20.850Z,18.80
2022-12-11T13:14:03.217Z,19.50
2022-12-11T13:16:42.176Z,17.43
2022-12-11T13:19:25.825Z,18.40
2022-12-11T13:22:15.723Z,21.97
2022-12-11T13:25:05.035Z,17.03
2022-12-11T13:27:35.055Z,19.33
2022-12-11T13:30:24.664Z,20.40
2022-12-11T13:33:02.740Z,19.60
2022-12-11T13:35:32.752Z,21.03
2022-12-11T13:38:19.201Z,20.00
2022-12-11T13:40:53.895Z,15.90
2022-12-11T13:43:26.671Z,15.10
2022-12-11T13:46:04.036Z,19.63
2022-12-11T13:48:39.031Z,19.63
2022-12-11T13:51:07.614Z,16.77
2022-12-11T13:53:34.546Z,16.03
2022-12-11T13:56:05.486Z,19.00
2022-12-11T13:58:39.640Z,16.17
2022-12-11T14:01:13.584Z,14.17
2022-12-11T14:04:06.975Z,17.53
2022-12-11T14:06:36.560Z,17.90
2022-12-11T14:09:05.940Z,10.53
2022-12-11T14:11:42.543Z,19.80
2022-12-11T14:14:28.685Z,15.77
2022-12-11T14:16:56.574Z,15.97
2022-12-11T14:19:25.228Z,12.83
2022-12-11T14:22:05.680Z,15.87
2022-12-11T14:24:33.291Z,13.97
2022-12-11T14:27:00.345Z,13.10
2022-12-11T14:29:31.719Z,12.87
2022-12-11T14:32:07.515Z,11.10
2022-12-11T14:34:45.960Z,14.60
2022-12-11T14:37:16.819Z,14.53
2022-12-11T14:40:09.924Z,12.07
2022-12-11T14:42:44.906Z,17.37
2022-12-11T14:45:25.757Z,18.07
2022-12-11T14:47:55.407Z,15.83
2022-12-11T14:50:47.670Z,13.70
2022-12-11T14:53:18.322Z,16.67
2022-12-11T14:55:49.126Z,18.70
2022-12-11T14:58:27.695Z,13.70
2022-12-11T15:01:08.384Z,16.30
2022-12-11T15:03:41.285Z,20.43
2022-12-11T15:06:29.131Z,21.33
2022-12-11T15:08:56.810Z,22.03
2022-12-11T15:11:31.076Z,18.83
2022-12-11T15:14:01.225Z,22.70
2022-12-11T15:16:33.897Z,21.53
2022-12-11T15:19:02.243Z,17.63
2022-12-11T15:21:32.901Z,19.47
2022-12-11T15:24:06.129Z,25.87
2022-12-11T15:26:46.550Z,21.13
2022-12-11T15:29:34.586Z,28.30
2022-12-11T15:32:10.404Z,23.73
2022-12-11T15:34:48.171Z,22.70
2022-12-11T15:37:34.040Z,23.13
2022-12-11T15:40:03.066Z,20.60
2022-12-11T15:42:42.657Z,18.50
2022-12-11T15:45:19.303Z,23.27
2022-12-11T15:47:48.024Z,22.40
2022-12-11T15:50:22.644Z,26.17
2022-12-11T15:52:51.818Z,26.27
2022-12-11T15:55:20.566Z,28.10
2022-12-11T15:58:14.483Z,26.53
2022-12-11T16:00:41.377Z,29.10
2022-12-11T16:03:15.024Z,29.57
2022-12-11T16:05:42.944Z,32.90
2022-12-11T16:08:15.490Z,29.53
2022-12-11T16:10:44.340Z,31.47
2022-12-11T16:13:12.466Z,28.93
2022-12-11T16:15:43.397Z,32.47
2022-12-11T16:18:18.266Z,30.03
2022-12-11T16:20:47.019Z,30.70
2022-12-11T16:23:16.581Z,35.73
2022-12-11T16:25:45.837Z,30.73
2022-12-11T16:28:16.506Z,28.40
2022-12-11T16:30:44.804Z,30.30
2022-12-11T16:33:13.361Z,33.83
2022-12-11T16:35:42.904Z,30.03
2022-12-11T16:38:11.412Z,29.63
2022-12-11T16:40:39.135Z,26.40
2022-12-11T16:43:06.584Z,21.37
2022-12-11T16:45:34.199Z,25.07
2022-12-11T16:48:05.530Z,21.30
2022-12-11T16:50:32.579Z,27.10
2022-12-11T16:52:59.714Z,23.47
2022-12-11T16:55:26.724Z,24.23
2022-12-11T16:57:54.538Z,28.80
2022-12-11T17:00:21.500Z,19.10
2022-12-11T17:02:49.062Z,19.73
2022-12-11T17:05:16.229Z,16.10
2022-12-11T17:07:43.169Z,19.60
2022-12-11T17:10:10.500Z,21.03
2022-12-11T17:12:37.481Z,25.83
2022-12-11T17:15:05.153Z,13.13
2022-12-11T17:17:33.252Z,22.80
2022-12-11T17:20:00.255Z,22.30
2022-12-11T17:22:27.293Z,23.03
2022-12-11T17:24:54.240Z,23.17
2022-12-11T17:27:21.116Z,16.70
2022-12-11T17:29:49.863Z,20.10
2022-12-11T17:32:17.761Z,20.37
2022-12-11T17:34:46.020Z,19.43
2022-12-11T17:37:13.127Z,15.60
2022-12-11T17:39:40.507Z,16.23
2022-12-11T17:42:07.792Z,13.57
2022-12-11T17:44:35.074Z,14.13
2022-12-11T17:47:07.545Z,15.60
2022-12-11T17:49:41.168Z,14.60
2022-12-11T17:52:08.295Z,14.33
2022-12-11T17:54:35.446Z,15.47
2022-12-11T17:57:02.561Z,15.50
2022-12-11T17:59:29.617Z,10.50
2022-12-11T18:01:56.693Z,18.60
2022-12-11T18:04:24.375Z,16.10
2022-12-11T18:06:51.302Z,13.87
2022-12-11T18:09:18.354Z,22.67
2022-12-11T18:11:45.533Z,22.90
2022-12-11T18:14:16.948Z,18.83
2022-12-11T18:16:45.074Z,20.13
2022-12-11T18:19:12.877Z,19.47
2022-12-11T18:21:44.006Z,20.00
2022-12-11T18:24:11.000Z,18.20
2022-12-11T18:26:38.293Z,22.63
2022-12-11T18:29:06.878Z,21.57
2022-12-11T18:31:36.377Z,24.67
2022-12-11T18:34:08.336Z,23.43
2022-12-11T18:36:35.295Z,25.83
2022-12-11T18:39:03.739Z,25.37
2022-12-11T18:41:30.668Z,22.50
2022-12-11T18:44:06.527Z,27.23
2022-12-11T18:46:36.945Z,21.70
2022-12-11T18:49:03.913Z,21.40
2022-12-11T18:51:30.934Z,18.70
2022-12-11T18:53:58.199Z,17.40
2022-12-11T18:56:25.513Z,17.53
2022-12-11T18:58:53.160Z,20.13
2022-12-11T19:01:28.957Z,19.03
2022-12-11T19:04:04.424Z,24.63
2022-12-11T19:06:33.392Z,21.70
2022-12-11T19:09:00.800Z,25.53
2022-12-11T19:11:31.728Z,25.97
2022-12-11T19:13:59.355Z,24.00
2022-12-11T19:16:42.104Z,24.50
2022-12-11T19:19:15.440Z,23.30
2022-12-11T19:21:43.373Z,27.40
2022-12-11T19:24:15.929Z,26.37
2022-12-11T19:26:46.380Z,18.40
2022-12-11T19:29:24.521Z,24.17
2022-12-11T19:31:52.195Z,28.20
2022-12-11T19:34:19.223Z,21.43
2022-12-11T19:36:46.714Z,23.60
2022-12-11T19:39:14.574Z,29.73
2022-12-11T19:41:42.150Z,24.33
2022-12-11T19:44:10.065Z,21.47
2022-12-11T19:46:37.509Z,23.37
2022-12-11T19:49:05.799Z,26.20
2022-12-11T19:51:40.834Z,22.50
2022-12-11T19:54:13.421Z,23.80
2022-12-11T19:56:40.612Z,25.20
2022-12-11T19:59:12.112Z,25.20
2022-12-11T20:01:39.192Z,26.70
2022-12-11T20:04:13.238Z,23.77
2022-12-11T20:06:44.189Z,22.80
2022-12-11T20:09:12.732Z,23.77
2022-12-11T20:11:44.896Z,23.23
2022-12-11T20:14:33.024Z,27.77
2022-12-11T20:17:15.532Z,24.43
2022-12-11T20:19:51.048Z,22.80
2022-12-11T20:22:18.867Z,21.30
2022-12-11T20:24:46.403Z,19.83
2022-12-11T20:27:13.704Z,22.00
2022-12-11T20:29:42.142Z,25.30
2022-12-11T20:32:11.575Z,19.57
2022-12-11T20:34:39.255Z,25.00
2022-12-11T20:37:06.253Z,29.07
2022-12-11T20:39:37.317Z,21.70
2022-12-11T20:42:05.418Z,18.40
2022-12-11T20:44:32.618Z,20.40
2022-12-11T20:47:00.785Z,20.20
2022-12-11T20:49:35.921Z,20.73
2022-12-11T20:52:03.434Z,15.13
2022-12-11T20:54:30.692Z,11.97
2022-12-11T20:56:58.128Z,6.37
2022-12-11T20:59:26.513Z,11.00
2022-12-11T21:01:53.714Z,10.80
2022-12-11T21:04:20.774Z,6.37
2022-12-11T21:06:55.426Z,9.97
2022-12-11T21:09:26.422Z,9.97
2022-12-11T21:11:53.627Z,8.17
2022-12-11T21:14:20.874Z,5.63
2022-12-11T21:16:47.999Z,6.10
2022-12-11T21:19:20.340Z,6.87
2022-12-11T21:21:48.126Z,9.67
2022-12-11T21:24:20.783Z,10.13
2022-12-11T21:26:48.651Z,8.00
2022-12-11T21:29:16.837Z,7.83
2022-12-11T21:31:44.256Z,8.57
2022-12-11T21:34:11.319Z,8.63
2022-12-11T21:36:38.379Z,6.10
2022-12-11T21:39:06.534Z,12.20
2022-12-11T21:41:33.700Z,9.83
2022-12-11T21:46:48.140Z,6.87
2022-12-11T21:49:15.292Z,13.40
2022-12-11T21:51:47.018Z,8.70
2022-12-11T21:54:18.578Z,12.03
2022-12-11T21:56:47.172Z,14.60
2022-12-11T21:59:14.646Z,9.40
2022-12-11T22:01:46.450Z,11.23
2022-12-11T22:04:15.620Z,8.90
2022-12-11T22:06:43.709Z,16.03
2022-12-11T22:09:13.102Z,12.07
2022-12-11T22:11:42.175Z,10.97
2022-12-11T22:14:13.359Z,10.60
2022-12-11T22:16:40.628Z,11.00
2022-12-11T22:19:07.650Z,10.40
2022-12-11T22:21:35.126Z,14.73
2022-12-11T22:24:02.338Z,11.27
2022-12-11T22:26:30.100Z,10.60
2022-12-11T22:28:57.298Z,10.60
2022-12-11T22:31:26.951Z,11.90
2022-12-11T22:33:55.446Z,10.33
2022-12-11T22:36:25.866Z,14.67
2022-12-11T22:38:53.004Z,9.47
2022-12-11T22:41:30.587Z,10.30
2022-12-11T22:43:58.495Z,15.57
2022-12-11T22:46:30.136Z,10.83
2022-12-11T22:48:58.906Z,12.73
2022-12-11T22:51:26.026Z,11.87
2022-12-11T22:53:53.002Z,8.73
2022-12-11T22:56:20.445Z,11.60
2022-12-11T22:58:47.712Z,17.90
2022-12-11T23:01:20.372Z,14.20
2022-12-11T23:03:48.543Z,15.47
2022-12-11T23:06:18.512Z,16.43
2022-12-11T23:08:46.429Z,13.63
2022-12-11T23:11:26.774Z,14.10
2022-12-11T23:13:55.376Z,16.70
2022-12-11T23:16:25.181Z,15.13
2022-12-11T23:18:53.411Z,13.57
2022-12-11T23:21:21.942Z,15.27
2022-12-11T23:23:49.597Z,16.30
2022-12-11T23:26:19.698Z,18.50
2022-12-11T23:28:47.944Z,15.60
2022-12-11T23:31:16.388Z,18.70
2022-12-11T23:33:43.387Z,19.30
2022-12-11T23:36:10.788Z,20.63
2022-12-11T23:38:38.411Z,17.37
2022-12-11T23:41:07.451Z,13.33
2022-12-11T23:43:36.246Z,14.23
2022-12-11T23:46:05.447Z,16.00
2022-12-11T23:48:32.748Z,15.73
2022-12-11T23:51:01.613Z,14.60
2022-12-11T23:53:30.418Z,19.00
2022-12-11T23:56:03.887Z,19.70
2022-12-11T23:58:30.877Z,19.03
